Aérodrome :
LOGIN :

S'inscrire | Disclaimer

   EN    FR    IT 

 










Légende :    VFR   VFR Marginal   IFR   IFR Intensif   IFR Très Intensif
Visi : 
Plafond : 
>= 8 km
>= 3000ft
5 à 8 km
1000 à 3000 ft
1500m à 5 km
500 à 1000 ft
800 à 1500m
200 à 500 ft
< 800m
< 200 ft
Symboles :   Orages  Brouillard  Fortes neiges  Fortes précipitations  Vent > 20 kt
SIGMETs :   Divers  Orages  Givrage  Turbulence  Onde Orograph.  Cendres Volcan.







- Altitude de l'aérodrome : 796 ft
- Code IATA : SYT
- Voir les cartes d'approche


LFLN - Saint-Yan

DERNIER METAR :
  • 210900Z AUTO VRB03KT CAVOK 23/13 Q1016 NOSIG

METARs EXPIRÉS :
  • 210830Z AUTO VRB02KT CAVOK 22/13 Q1016 NOSIG
  • 210800Z AUTO VRB01KT CAVOK 21/13 Q1016 BECMG 30015G25KT
  • 210730Z AUTO VRB02KT CAVOK 20/12 Q1016 BECMG 30015G25KT
  • 210700Z AUTO 16003KT CAVOK 19/12 Q1016 NOSIG
  • 210630Z AUTO VRB02KT 9999 BKN048 OVC220 18/13 Q1015 NOSIG

TAF TAF LFLN
Valide du 21 à 09h jusqu'au 21 à 18h UTC


210800Z 2109/2118 30005KT CAVOK
BECMG 2110/2114 30010G20KT SCT015 BKN030 OVC080
PROB40
TEMPO 2115/2118 33015G35KT 4000 RA
Pas de NOTAMs connus pour ce terrain.



MET'MAP, la Météo Aéronautique d'un coup d'oeil ! - Copyright ORBIFLY Décembre 2007 - Disclaimer

ORBIFLY MET'MAP TEAM :

Programmation & Développement : Alexandra Zaïnal
Conception & Développement : Baudouin d'Aumeries
Co-Programmation & Développement : Marc-Olivier Méhu
Soutien technique & logistique : Manuel Goepfert

Contact : metmap@orbifly.com




SOURCES & CREDITS :

   NOAA